createdAt,value
2022-11-20T00:02:09.512Z,1.00
2022-11-20T00:05:11.149Z,0.70
2022-11-20T00:08:12.759Z,0.60
2022-11-20T00:11:16.880Z,0.60
2022-11-20T00:14:18.657Z,0.80
2022-11-20T00:17:20.337Z,1.00
2022-11-20T00:20:21.919Z,0.90
2022-11-20T00:23:23.484Z,0.80
2022-11-20T00:26:26.590Z,0.60
2022-11-20T00:29:28.129Z,0.50
2022-11-20T00:32:30.739Z,0.50
2022-11-20T00:35:32.288Z,0.50
2022-11-20T00:38:34.618Z,0.60
2022-11-20T00:41:36.155Z,0.30
2022-11-20T00:44:37.657Z,0.50
2022-11-20T00:47:39.213Z,0.40
2022-11-20T00:50:42.702Z,0.30
2022-11-20T00:53:45.370Z,0.50
2022-11-20T00:56:46.894Z,0.30
2022-11-20T00:59:48.429Z,0.30
2022-11-20T01:02:49.960Z,1.00
2022-11-20T01:05:51.490Z,1.50
2022-11-20T01:08:55.716Z,0.50
2022-11-20T01:11:57.297Z,0.50
2022-11-20T01:14:58.792Z,1.00
2022-11-20T01:18:00.335Z,0.70
2022-11-20T01:21:10.954Z,0.50
2022-11-20T01:24:16.242Z,0.60
2022-11-20T01:27:17.759Z,0.70
2022-11-20T01:30:20.678Z,0.70
2022-11-20T01:33:22.255Z,1.30
2022-11-20T01:36:26.144Z,0.90
2022-11-20T01:39:28.097Z,0.90
2022-11-20T01:42:48.345Z,0.90
2022-11-20T01:46:01.489Z,0.70
2022-11-20T01:49:22.313Z,0.80
2022-11-20T01:52:37.937Z,0.90
2022-11-20T01:55:45.031Z,2.00
2022-11-20T01:58:54.731Z,1.00
2022-11-20T02:01:56.541Z,1.10
2022-11-20T02:05:05.477Z,1.80
2022-11-20T02:08:07.949Z,1.30
2022-11-20T02:11:09.921Z,1.00
2022-11-20T02:14:11.977Z,0.80
2022-11-20T02:17:13.569Z,1.10
2022-11-20T02:20:15.290Z,1.20
2022-11-20T02:23:26.859Z,-0.80
2022-11-20T02:26:31.317Z,1.20
2022-11-20T02:29:44.487Z,1.00
2022-11-20T02:32:46.126Z,1.30
2022-11-20T02:35:47.921Z,1.60
2022-11-20T02:38:50.423Z,1.20
2022-11-20T02:41:56.761Z,1.30
2022-11-20T02:44:58.301Z,0.90
2022-11-20T02:48:00.031Z,1.00
2022-11-20T02:51:01.760Z,1.30
2022-11-20T02:54:03.852Z,1.10
2022-11-20T02:57:05.385Z,1.20
2022-11-20T03:00:08.156Z,1.10
2022-11-20T03:03:09.737Z,1.30
2022-11-20T03:06:11.877Z,1.20
2022-11-20T03:09:13.801Z,1.40
2022-11-20T03:12:15.630Z,1.30
2022-11-20T03:15:19.893Z,2.10
2022-11-20T03:18:22.249Z,1.60
2022-11-20T03:21:24.441Z,2.00
2022-11-20T03:24:26.310Z,1.50
2022-11-20T03:27:27.968Z,1.60
2022-11-20T03:30:30.960Z,1.40
2022-11-20T03:33:32.750Z,1.50
2022-11-20T03:36:35.015Z,1.40
2022-11-20T03:39:36.551Z,1.30
2022-11-20T03:42:47.019Z,1.40
2022-11-20T03:45:48.662Z,1.80
2022-11-20T03:48:51.831Z,1.50
2022-11-20T03:51:54.132Z,2.20
2022-11-20T03:54:55.737Z,1.70
2022-11-20T03:57:57.282Z,3.00
2022-11-20T04:00:59.094Z,2.30
2022-11-20T04:04:01.091Z,2.20
2022-11-20T04:07:03.366Z,2.30
2022-11-20T04:10:05.430Z,1.70
2022-11-20T04:13:06.941Z,1.70
2022-11-20T04:16:10.094Z,2.30
2022-11-20T04:19:14.113Z,1.60
2022-11-20T04:22:15.702Z,1.70
2022-11-20T04:25:17.378Z,1.60
2022-11-20T04:28:18.932Z,1.70
2022-11-20T04:31:23.324Z,1.70
2022-11-20T04:34:24.903Z,2.00
2022-11-20T04:37:26.434Z,1.90
2022-11-20T04:40:29.464Z,2.00
2022-11-20T04:43:31.992Z,1.70
2022-11-20T04:46:44.367Z,1.80
2022-11-20T04:49:45.922Z,1.80
2022-11-20T04:52:47.510Z,1.70
2022-11-20T04:55:49.156Z,1.70
2022-11-20T04:58:50.859Z,1.90
2022-11-20T05:01:52.496Z,2.00
2022-11-20T05:04:54.038Z,1.80
2022-11-20T05:07:58.322Z,2.00
2022-11-20T05:11:08.388Z,1.60
2022-11-20T05:14:09.941Z,1.70
2022-11-20T05:17:12.929Z,1.70
2022-11-20T05:20:14.514Z,2.80
2022-11-20T05:23:16.036Z,1.90
2022-11-20T05:26:23.816Z,2.10
2022-11-20T05:29:25.392Z,2.20
2022-11-20T05:32:26.984Z,2.80
2022-11-20T05:35:28.531Z,2.30
2022-11-20T05:38:30.241Z,3.00
2022-11-20T05:41:33.690Z,2.20
2022-11-20T05:44:35.239Z,2.30
2022-11-20T05:47:36.779Z,2.30
2022-11-20T05:50:38.343Z,2.80
2022-11-20T05:53:43.835Z,2.70
2022-11-20T05:56:49.611Z,2.40
2022-11-20T05:59:51.377Z,3.40
2022-11-20T06:02:53.052Z,2.70
2022-11-20T06:05:54.633Z,2.60
2022-11-20T06:08:56.537Z,2.40
2022-11-20T06:11:58.155Z,3.50
2022-11-20T06:15:00.752Z,2.50
2022-11-20T06:18:02.443Z,2.60
2022-11-20T06:21:09.751Z,2.50
2022-11-20T06:24:11.644Z,2.70
2022-11-20T06:27:13.187Z,3.90
2022-11-20T06:30:14.912Z,2.80
2022-11-20T06:33:16.464Z,2.80
2022-11-20T06:36:21.757Z,2.60
2022-11-20T06:39:23.472Z,2.70
2022-11-20T06:42:25.282Z,2.60
2022-11-20T06:45:26.824Z,2.60
2022-11-20T06:48:29.383Z,2.80
2022-11-20T06:51:30.947Z,2.40
2022-11-20T06:54:32.584Z,2.60
2022-11-20T06:57:34.762Z,2.40
2022-11-20T07:00:36.573Z,1.30
2022-11-20T07:03:38.787Z,2.20
2022-11-20T07:06:40.384Z,3.20
2022-11-20T07:09:41.920Z,2.20
2022-11-20T07:12:43.465Z,2.30
2022-11-20T07:15:45.053Z,2.30
2022-11-20T07:18:50.569Z,3.30
2022-11-20T07:21:52.816Z,2.20
2022-11-20T07:24:54.368Z,2.30
2022-11-20T07:27:59.864Z,2.30
2022-11-20T07:31:01.808Z,2.20
2022-11-20T07:34:03.395Z,2.30
2022-11-20T07:37:10.077Z,2.80
2022-11-20T07:40:18.739Z,3.00
2022-11-20T07:43:20.275Z,2.80
2022-11-20T07:46:21.814Z,2.70
2022-11-20T07:49:23.761Z,3.20
2022-11-20T07:52:25.474Z,2.60
2022-11-20T07:55:26.975Z,2.40
2022-11-20T07:58:30.798Z,2.30
2022-11-20T08:01:32.333Z,2.40
2022-11-20T08:04:34.115Z,2.30
2022-11-20T08:07:43.091Z,2.40
2022-11-20T08:10:44.721Z,2.50
2022-11-20T08:14:04.833Z,2.60
2022-11-20T08:17:06.365Z,2.70
2022-11-20T08:20:08.494Z,2.70
2022-11-20T08:23:10.205Z,2.80
2022-11-20T08:26:11.742Z,2.80
2022-11-20T08:29:13.332Z,3.80
2022-11-20T08:32:14.907Z,5.20
2022-11-20T08:35:16.644Z,3.00
2022-11-20T08:38:18.294Z,3.10
2022-11-20T08:41:29.451Z,3.20
2022-11-20T08:44:31.148Z,3.40
2022-11-20T08:47:32.682Z,3.40
2022-11-20T08:50:34.305Z,3.40
2022-11-20T08:53:35.948Z,4.10
2022-11-20T08:56:37.895Z,3.90
2022-11-20T09:00:09.726Z,4.00
2022-11-20T09:03:02.471Z,4.10
2022-11-20T09:06:07.036Z,4.10
2022-11-20T09:09:08.787Z,4.20
2022-11-20T09:12:10.330Z,4.00
2022-11-20T09:15:12.834Z,4.30
2022-11-20T09:18:14.771Z,4.50
2022-11-20T09:21:16.375Z,4.40
2022-11-20T09:24:18.638Z,4.50
2022-11-20T09:27:22.425Z,4.70
2022-11-20T09:30:24.053Z,5.90
2022-11-20T09:33:25.594Z,4.30
2022-11-20T09:36:27.323Z,4.70
2022-11-20T09:39:28.869Z,4.50
2022-11-20T09:42:56.046Z,4.60
2022-11-20T09:46:03.276Z,5.00
2022-11-20T09:49:32.143Z,4.90
2022-11-20T09:52:42.979Z,5.00
2022-11-20T09:55:46.756Z,5.00
2022-11-20T09:59:03.724Z,7.00
2022-11-20T10:02:32.832Z,5.60
2022-11-20T10:05:51.848Z,5.40
2022-11-20T10:09:02.600Z,5.30
2022-11-20T10:12:15.952Z,5.30
2022-11-20T10:15:57.077Z,5.20
2022-11-20T10:19:09.926Z,5.50
2022-11-20T10:22:21.656Z,6.50
2022-11-20T10:25:32.320Z,5.40
2022-11-20T10:29:05.987Z,4.50
2022-11-20T10:32:20.970Z,5.20
2022-11-20T10:35:35.263Z,5.30
2022-11-20T10:39:11.716Z,5.60
2022-11-20T10:42:18.346Z,5.50
2022-11-20T10:45:27.851Z,5.60
2022-11-20T10:48:32.061Z,7.00
2022-11-20T10:52:01.146Z,5.70
2022-11-20T10:55:12.185Z,6.00
2022-11-20T10:58:46.449Z,5.70
2022-11-20T11:01:48.022Z,4.00
2022-11-20T11:04:54.968Z,6.20
2022-11-20T11:07:58.410Z,5.90
2022-11-20T11:11:19.238Z,6.00
2022-11-20T11:14:21.416Z,6.10
2022-11-20T11:17:34.709Z,8.50
2022-11-20T11:20:37.236Z,6.20
2022-11-20T11:23:43.685Z,6.10
2022-11-20T11:26:53.610Z,8.40
2022-11-20T11:30:15.479Z,6.50
2022-11-20T11:33:25.870Z,6.30
2022-11-20T11:36:27.457Z,6.50
2022-11-20T11:39:31.233Z,6.50
2022-11-20T11:42:33.072Z,6.50
2022-11-20T11:45:34.739Z,8.20
2022-11-20T11:48:36.377Z,6.30
2022-11-20T11:51:54.046Z,6.50
2022-11-20T11:55:07.138Z,6.40
2022-11-20T11:58:47.685Z,6.40
2022-11-20T12:01:55.897Z,6.40
2022-11-20T12:05:24.728Z,6.30
2022-11-20T12:08:36.289Z,6.70
2022-11-20T12:11:59.897Z,6.30
2022-11-20T12:15:01.865Z,8.50
2022-11-20T12:18:08.992Z,6.60
2022-11-20T12:21:29.896Z,6.60
2022-11-20T12:24:35.621Z,5.70
2022-11-20T12:27:56.086Z,6.00
2022-11-20T12:31:41.284Z,6.20
2022-11-20T12:35:00.773Z,6.70
2022-11-20T12:38:32.339Z,5.90
2022-11-20T12:42:21.516Z,6.40
2022-11-20T12:46:00.655Z,6.40
2022-11-20T12:49:02.197Z,6.20
2022-11-20T12:52:40.331Z,6.20
2022-11-20T12:56:04.627Z,6.50
2022-11-20T12:59:31.931Z,6.30
2022-11-20T13:02:54.110Z,6.30
2022-11-20T13:06:11.403Z,6.20
2022-11-20T13:09:17.520Z,6.20
2022-11-20T13:12:46.854Z,6.40
2022-11-20T13:16:17.103Z,6.40
2022-11-20T13:19:19.728Z,6.20
2022-11-20T13:22:47.808Z,6.40
2022-11-20T13:25:50.873Z,6.10
2022-11-20T13:29:15.513Z,6.30
2022-11-20T13:32:19.936Z,6.40
2022-11-20T13:35:36.330Z,6.50
2022-11-20T13:38:54.915Z,5.90
2022-11-20T13:42:20.048Z,6.20
2022-11-20T13:45:27.695Z,5.90
2022-11-20T13:48:44.441Z,6.10
2022-11-20T13:51:58.693Z,6.20
2022-11-20T13:55:24.531Z,6.30
2022-11-20T13:58:32.856Z,4.20
2022-11-20T14:01:35.864Z,6.00
2022-11-20T14:04:43.426Z,6.20
2022-11-20T14:07:45.183Z,6.00
2022-11-20T14:10:53.947Z,5.60
2022-11-20T14:14:28.705Z,6.50
2022-11-20T14:17:40.357Z,6.30
2022-11-20T14:20:46.491Z,6.20
2022-11-20T14:23:54.876Z,6.20
2022-11-20T14:26:58.812Z,6.00
2022-11-20T14:30:05.031Z,6.40
2022-11-20T14:33:06.924Z,6.30
2022-11-20T14:36:19.203Z,6.60
2022-11-20T14:39:36.800Z,6.40
2022-11-20T14:42:47.204Z,6.20
2022-11-20T14:46:00.125Z,6.10
2022-11-20T14:49:06.736Z,6.30
2022-11-20T14:52:41.882Z,6.20
2022-11-20T14:55:43.461Z,6.20
2022-11-20T14:58:55.648Z,6.00
2022-11-20T15:02:06.716Z,6.30
2022-11-20T15:05:11.545Z,6.20
2022-11-20T15:08:17.452Z,6.20
2022-11-20T15:11:21.689Z,6.20
2022-11-20T15:14:52.758Z,6.30
2022-11-20T15:17:57.294Z,5.90
2022-11-20T15:21:20.070Z,6.40
2022-11-20T15:24:46.435Z,6.00
2022-11-20T15:27:49.631Z,6.50
2022-11-20T15:30:51.239Z,6.30
2022-11-20T15:37:29.844Z,6.10
2022-11-20T15:40:54.151Z,4.80
2022-11-20T15:44:01.725Z,6.00
2022-11-20T15:47:14.894Z,5.80
2022-11-20T15:51:18.107Z,7.20
2022-11-20T15:54:22.937Z,5.60
2022-11-20T15:57:31.232Z,5.70
2022-11-20T16:00:32.881Z,5.20
2022-11-20T16:03:45.584Z,5.20
2022-11-20T16:07:04.500Z,5.70
2022-11-20T16:10:11.866Z,6.10
2022-11-20T16:13:40.120Z,6.90
2022-11-20T16:17:03.777Z,5.40
2022-11-20T16:20:19.362Z,6.30
2022-11-20T16:23:38.895Z,5.70
2022-11-20T16:26:45.662Z,4.80
2022-11-20T16:29:52.722Z,6.10
2022-11-20T16:32:56.340Z,6.00
2022-11-20T16:35:57.870Z,5.90
2022-11-20T16:39:01.939Z,5.60
2022-11-20T16:42:06.683Z,6.10
2022-11-20T16:45:08.704Z,6.90
2022-11-20T16:48:15.832Z,6.00
2022-11-20T16:51:17.612Z,6.20
2022-11-20T16:54:21.216Z,5.90
2022-11-20T16:57:23.355Z,6.00
2022-11-20T17:00:24.952Z,6.10
2022-11-20T17:03:29.526Z,6.20
2022-11-20T17:06:36.704Z,6.40
2022-11-20T17:09:38.916Z,7.80
2022-11-20T17:12:40.446Z,6.20
2022-11-20T17:15:42.016Z,6.20
2022-11-20T17:18:44.340Z,6.20
2022-11-20T17:21:45.942Z,6.10
2022-11-20T17:24:47.910Z,6.10
2022-11-20T17:27:49.461Z,6.10
2022-11-20T17:30:50.963Z,6.40
2022-11-20T17:33:52.569Z,6.40
2022-11-20T17:36:55.347Z,6.70
2022-11-20T17:39:56.931Z,6.60
2022-11-20T17:42:58.527Z,6.30
2022-11-20T17:46:00.110Z,6.40
2022-11-20T17:49:02.630Z,7.80
2022-11-20T17:52:04.558Z,6.80
2022-11-20T17:55:06.629Z,6.50
2022-11-20T17:58:08.172Z,6.40
2022-11-20T18:01:09.889Z,6.50
2022-11-20T18:04:11.907Z,6.50
2022-11-20T18:07:13.588Z,6.80
2022-11-20T18:10:15.238Z,6.60
2022-11-20T18:13:16.763Z,6.40
2022-11-20T18:16:21.250Z,6.60
2022-11-20T18:19:32.203Z,6.60
2022-11-20T18:22:34.467Z,6.40
2022-11-20T18:25:41.419Z,6.50
2022-11-20T18:28:45.537Z,7.30
2022-11-20T18:31:49.160Z,6.90
2022-11-20T18:34:53.795Z,6.60
2022-11-20T18:37:55.308Z,6.70
2022-11-20T18:41:00.719Z,6.70
2022-11-20T18:44:25.991Z,6.90
2022-11-20T18:47:37.723Z,6.70
2022-11-20T18:50:39.283Z,6.90
2022-11-20T18:53:46.930Z,6.70
2022-11-20T18:56:49.337Z,6.80
2022-11-20T18:59:51.477Z,7.20
2022-11-20T19:02:54.362Z,6.80
2022-11-20T19:05:55.878Z,6.80
2022-11-20T19:08:57.426Z,7.30
2022-11-20T19:11:59.593Z,7.00
2022-11-20T19:15:04.659Z,7.20
2022-11-20T19:18:07.717Z,7.10
2022-11-20T19:21:24.661Z,7.10
2022-11-20T19:24:37.608Z,7.20
2022-11-20T19:27:39.204Z,7.20
2022-11-20T19:30:43.807Z,7.60
2022-11-20T19:33:55.882Z,7.50
2022-11-20T19:37:09.744Z,7.60
2022-11-20T19:40:13.739Z,9.00
2022-11-20T19:43:15.300Z,7.30
2022-11-20T19:46:24.062Z,7.50
2022-11-20T19:49:31.044Z,7.00
2022-11-20T19:52:36.699Z,7.70
2022-11-20T19:55:48.184Z,6.80
2022-11-20T19:58:49.883Z,7.30
2022-11-20T20:01:51.498Z,7.40
2022-11-20T20:04:53.051Z,7.50
2022-11-20T20:07:54.583Z,7.90
2022-11-20T20:10:59.864Z,7.60
2022-11-20T20:14:10.109Z,7.70
2022-11-20T20:17:11.635Z,7.80
2022-11-20T20:20:16.100Z,7.80
2022-11-20T20:23:17.737Z,7.90
2022-11-20T20:26:20.361Z,7.90
2022-11-20T20:29:25.671Z,7.90
2022-11-20T20:32:27.505Z,9.40
2022-11-20T20:35:29.331Z,7.80
2022-11-20T20:38:37.381Z,7.40
2022-11-20T20:41:39.064Z,8.80
2022-11-20T20:44:59.578Z,7.90
2022-11-20T20:48:01.347Z,9.20
2022-11-20T20:51:03.015Z,7.60
2022-11-20T20:54:04.970Z,7.40
2022-11-20T20:57:06.486Z,7.50
2022-11-20T21:00:08.852Z,7.30
2022-11-20T21:03:10.404Z,7.80
2022-11-20T21:06:12.264Z,7.30
2022-11-20T21:09:13.835Z,7.40
2022-11-20T21:12:17.018Z,7.10
2022-11-20T21:15:18.600Z,7.10
2022-11-20T21:18:21.722Z,7.70
2022-11-20T21:21:41.746Z,7.60
2022-11-20T21:24:43.273Z,7.30
2022-11-20T21:27:44.792Z,7.30
2022-11-20T21:30:46.910Z,7.30
2022-11-20T21:33:50.888Z,7.40
2022-11-20T21:36:52.506Z,7.20
2022-11-20T21:39:54.008Z,7.50
2022-11-20T21:42:55.936Z,7.30
2022-11-20T21:46:17.073Z,6.80
2022-11-20T21:49:18.618Z,6.70
2022-11-20T21:52:20.152Z,7.20
2022-11-20T21:55:21.700Z,7.10
2022-11-20T21:58:23.385Z,6.50
2022-11-20T22:01:27.871Z,6.70
2022-11-20T22:04:29.597Z,6.90
2022-11-20T22:07:31.157Z,9.20
2022-11-20T22:10:35.379Z,6.60
2022-11-20T22:13:57.839Z,6.50
2022-11-20T22:17:01.843Z,6.50
2022-11-20T22:20:03.754Z,6.80
2022-11-20T22:23:05.446Z,6.70
2022-11-20T22:26:13.361Z,6.30
2022-11-20T22:29:17.499Z,6.80
2022-11-20T22:32:19.042Z,6.40
2022-11-20T22:35:20.810Z,6.70
2022-11-20T22:38:29.354Z,6.10
2022-11-20T22:41:31.684Z,6.20
2022-11-20T22:44:33.207Z,6.70
2022-11-20T22:47:34.734Z,5.80
2022-11-20T22:50:36.257Z,6.00
2022-11-20T22:53:37.865Z,6.20
2022-11-20T22:56:40.130Z,6.00
2022-11-20T22:59:41.669Z,6.10
2022-11-20T23:02:46.548Z,6.20
2022-11-20T23:05:48.194Z,6.00
2022-11-20T23:08:50.228Z,5.80
2022-11-20T23:11:52.606Z,5.90
2022-11-20T23:14:54.135Z,5.80
2022-11-20T23:17:55.734Z,5.70
2022-11-20T23:20:57.675Z,5.70
2022-11-20T23:24:00.096Z,5.80
2022-11-20T23:27:01.615Z,5.90
2022-11-20T23:30:03.415Z,5.50
2022-11-20T23:33:05.080Z,5.70
2022-11-20T23:36:07.484Z,5.70
2022-11-20T23:39:09.929Z,5.70
2022-11-20T23:42:11.486Z,5.70
2022-11-20T23:45:13.111Z,5.40
2022-11-20T23:48:15.291Z,5.70
2022-11-20T23:51:17.387Z,5.50
2022-11-20T23:54:18.959Z,5.40
2022-11-20T23:57:20.475Z,5.50
